sensor_id;sensor_type;location;lat;lon;timestamp;P1;durP1;ratioP1;P2;durP2;ratioP2
9880;SDS011;4979;51.014;6.678;2023-09-12T00:00:44;10.95;;;8.43;;
9880;SDS011;4979;51.014;6.678;2023-09-12T00:03:10;9.02;;;7.72;;
9880;SDS011;4979;51.014;6.678;2023-09-12T00:05:36;9.95;;;8.27;;
9880;SDS011;4979;51.014;6.678;2023-09-12T00:08:02;12.98;;;7.85;;
9880;SDS011;4979;51.014;6.678;2023-09-12T00:10:28;8.77;;;7.63;;
9880;SDS011;4979;51.014;6.678;2023-09-12T00:12:54;10.80;;;7.90;;
9880;SDS011;4979;51.014;6.678;2023-09-12T00:15:20;11.40;;;8.10;;
9880;SDS011;4979;51.014;6.678;2023-09-12T00:17:46;11.00;;;9.05;;
9880;SDS011;4979;51.014;6.678;2023-09-12T00:20:13;11.73;;;8.80;;
9880;SDS011;4979;51.014;6.678;2023-09-12T00:22:39;13.27;;;9.45;;
9880;SDS011;4979;51.014;6.678;2023-09-12T00:25:05;12.60;;;10.55;;
9880;SDS011;4979;51.014;6.678;2023-09-12T00:27:31;16.48;;;10.98;;
9880;SDS011;4979;51.014;6.678;2023-09-12T00:29:57;18.17;;;11.45;;
9880;SDS011;4979;51.014;6.678;2023-09-12T00:32:22;14.63;;;9.90;;
9880;SDS011;4979;51.014;6.678;2023-09-12T00:34:48;14.85;;;11.10;;
9880;SDS011;4979;51.014;6.678;2023-09-12T00:37:13;15.40;;;11.77;;
9880;SDS011;4979;51.014;6.678;2023-09-12T00:39:39;16.58;;;11.23;;
9880;SDS011;4979;51.014;6.678;2023-09-12T00:42:04;18.45;;;11.05;;
9880;SDS011;4979;51.014;6.678;2023-09-12T00:44:32;13.30;;;10.75;;
9880;SDS011;4979;51.014;6.678;2023-09-12T00:46:58;14.73;;;11.57;;
9880;SDS011;4979;51.014;6.678;2023-09-12T00:49:25;14.35;;;11.23;;
9880;SDS011;4979;51.014;6.678;2023-09-12T00:51:52;14.52;;;12.43;;
9880;SDS011;4979;51.014;6.678;2023-09-12T00:54:19;13.68;;;11.80;;
9880;SDS011;4979;51.014;6.678;2023-09-12T00:56:45;13.90;;;12.45;;
9880;SDS011;4979;51.014;6.678;2023-09-12T00:59:11;17.25;;;12.88;;
9880;SDS011;4979;51.014;6.678;2023-09-12T01:01:37;15.70;;;12.60;;
9880;SDS011;4979;51.014;6.678;2023-09-12T01:04:02;16.48;;;12.38;;
9880;SDS011;4979;51.014;6.678;2023-09-12T01:06:28;16.13;;;11.70;;
9880;SDS011;4979;51.014;6.678;2023-09-12T01:08:56;16.08;;;12.95;;
9880;SDS011;4979;51.014;6.678;2023-09-12T01:11:22;19.05;;;12.90;;
9880;SDS011;4979;51.014;6.678;2023-09-12T01:13:49;15.98;;;13.48;;
9880;SDS011;4979;51.014;6.678;2023-09-12T01:16:14;15.00;;;11.68;;
9880;SDS011;4979;51.014;6.678;2023-09-12T01:18:40;16.55;;;12.77;;
9880;SDS011;4979;51.014;6.678;2023-09-12T01:29:53;18.77;;;12.50;;
9880;SDS011;4979;51.014;6.678;2023-09-12T01:32:26;17.17;;;12.15;;
9880;SDS011;4979;51.014;6.678;2023-09-12T01:34:52;15.63;;;12.43;;
9880;SDS011;4979;51.014;6.678;2023-09-12T01:37:18;15.88;;;12.77;;
9880;SDS011;4979;51.014;6.678;2023-09-12T01:39:43;15.43;;;12.63;;
9880;SDS011;4979;51.014;6.678;2023-09-12T01:42:13;19.50;;;13.32;;
9880;SDS011;4979;51.014;6.678;2023-09-12T01:44:43;17.40;;;13.40;;
9880;SDS011;4979;51.014;6.678;2023-09-12T01:47:10;17.67;;;13.48;;
9880;SDS011;4979;51.014;6.678;2023-09-12T01:49:37;20.95;;;13.20;;
9880;SDS011;4979;51.014;6.678;2023-09-12T01:52:06;16.80;;;12.80;;
9880;SDS011;4979;51.014;6.678;2023-09-12T01:54:32;17.67;;;13.68;;
9880;SDS011;4979;51.014;6.678;2023-09-12T01:56:59;19.20;;;14.35;;
9880;SDS011;4979;51.014;6.678;2023-09-12T01:59:26;21.40;;;14.57;;
9880;SDS011;4979;51.014;6.678;2023-09-12T02:01:53;17.75;;;14.15;;
9880;SDS011;4979;51.014;6.678;2023-09-12T02:04:18;19.45;;;15.27;;
9880;SDS011;4979;51.014;6.678;2023-09-12T02:06:44;19.27;;;16.25;;
9880;SDS011;4979;51.014;6.678;2023-09-12T02:09:10;24.55;;;16.30;;
9880;SDS011;4979;51.014;6.678;2023-09-12T02:11:35;22.48;;;16.55;;
9880;SDS011;4979;51.014;6.678;2023-09-12T02:14:01;26.40;;;18.48;;
9880;SDS011;4979;51.014;6.678;2023-09-12T02:16:27;24.38;;;16.45;;
9880;SDS011;4979;51.014;6.678;2023-09-12T02:18:54;26.88;;;17.65;;
9880;SDS011;4979;51.014;6.678;2023-09-12T02:21:19;22.75;;;17.65;;
9880;SDS011;4979;51.014;6.678;2023-09-12T02:23:45;23.30;;;16.98;;
9880;SDS011;4979;51.014;6.678;2023-09-12T02:26:10;25.42;;;18.17;;
9880;SDS011;4979;51.014;6.678;2023-09-12T02:28:36;20.35;;;17.67;;
9880;SDS011;4979;51.014;6.678;2023-09-12T02:31:01;22.10;;;17.20;;
9880;SDS011;4979;51.014;6.678;2023-09-12T02:33:27;24.05;;;17.50;;
9880;SDS011;4979;51.014;6.678;2023-09-12T02:35:52;24.38;;;17.98;;
9880;SDS011;4979;51.014;6.678;2023-09-12T02:38:18;24.58;;;18.45;;
9880;SDS011;4979;51.014;6.678;2023-09-12T02:40:44;24.10;;;18.55;;
9880;SDS011;4979;51.014;6.678;2023-09-12T02:43:09;21.55;;;17.50;;
9880;SDS011;4979;51.014;6.678;2023-09-12T02:45:35;26.30;;;18.95;;
9880;SDS011;4979;51.014;6.678;2023-09-12T02:48:00;23.90;;;18.00;;
9880;SDS011;4979;51.014;6.678;2023-09-12T02:50:26;23.35;;;18.98;;
9880;SDS011;4979;51.014;6.678;2023-09-12T02:52:51;25.45;;;18.65;;
9880;SDS011;4979;51.014;6.678;2023-09-12T02:55:17;25.95;;;19.20;;
9880;SDS011;4979;51.014;6.678;2023-09-12T02:57:42;25.60;;;19.85;;
9880;SDS011;4979;51.014;6.678;2023-09-12T03:00:08;23.67;;;18.30;;
9880;SDS011;4979;51.014;6.678;2023-09-12T03:02:34;22.77;;;18.33;;
9880;SDS011;4979;51.014;6.678;2023-09-12T03:05:00;24.95;;;19.70;;
9880;SDS011;4979;51.014;6.678;2023-09-12T03:07:29;27.83;;;18.95;;
9880;SDS011;4979;51.014;6.678;2023-09-12T03:09:55;26.15;;;19.73;;
9880;SDS011;4979;51.014;6.678;2023-09-12T03:12:21;27.48;;;20.42;;
9880;SDS011;4979;51.014;6.678;2023-09-12T03:14:46;25.25;;;19.23;;
9880;SDS011;4979;51.014;6.678;2023-09-12T03:17:12;26.50;;;18.33;;
9880;SDS011;4979;51.014;6.678;2023-09-12T03:19:37;30.85;;;19.98;;
9880;SDS011;4979;51.014;6.678;2023-09-12T03:22:03;27.17;;;20.48;;
9880;SDS011;4979;51.014;6.678;2023-09-12T03:24:29;24.38;;;19.40;;
9880;SDS011;4979;51.014;6.678;2023-09-12T03:26:54;24.40;;;20.75;;
9880;SDS011;4979;51.014;6.678;2023-09-12T03:29:20;28.65;;;20.77;;
9880;SDS011;4979;51.014;6.678;2023-09-12T03:31:45;28.80;;;20.08;;
9880;SDS011;4979;51.014;6.678;2023-09-12T03:34:11;26.52;;;19.17;;
9880;SDS011;4979;51.014;6.678;2023-09-12T03:36:36;24.80;;;17.77;;
9880;SDS011;4979;51.014;6.678;2023-09-12T03:39:02;23.73;;;18.73;;
9880;SDS011;4979;51.014;6.678;2023-09-12T03:41:30;26.92;;;19.67;;
9880;SDS011;4979;51.014;6.678;2023-09-12T03:43:55;29.83;;;20.58;;
9880;SDS011;4979;51.014;6.678;2023-09-12T03:46:21;26.58;;;20.73;;
9880;SDS011;4979;51.014;6.678;2023-09-12T03:48:47;27.33;;;20.25;;
9880;SDS011;4979;51.014;6.678;2023-09-12T03:51:14;27.45;;;20.08;;
9880;SDS011;4979;51.014;6.678;2023-09-12T03:53:39;30.15;;;20.50;;
9880;SDS011;4979;51.014;6.678;2023-09-12T03:56:05;27.70;;;20.98;;
9880;SDS011;4979;51.014;6.678;2023-09-12T03:58:31;32.30;;;20.38;;
9880;SDS011;4979;51.014;6.678;2023-09-12T04:00:56;27.77;;;20.23;;
9880;SDS011;4979;51.014;6.678;2023-09-12T04:03:22;26.73;;;20.58;;
9880;SDS011;4979;51.014;6.678;2023-09-12T04:05:48;28.65;;;20.92;;
9880;SDS011;4979;51.014;6.678;2023-09-12T04:08:15;26.20;;;20.10;;
9880;SDS011;4979;51.014;6.678;2023-09-12T04:10:40;28.52;;;20.90;;
9880;SDS011;4979;51.014;6.678;2023-09-12T04:13:06;26.52;;;19.67;;
9880;SDS011;4979;51.014;6.678;2023-09-12T04:15:31;24.90;;;20.27;;
9880;SDS011;4979;51.014;6.678;2023-09-12T04:17:58;23.33;;;19.25;;
9880;SDS011;4979;51.014;6.678;2023-09-12T04:20:24;24.50;;;19.10;;
9880;SDS011;4979;51.014;6.678;2023-09-12T04:22:50;24.88;;;20.08;;
9880;SDS011;4979;51.014;6.678;2023-09-12T04:25:15;29.75;;;20.73;;
9880;SDS011;4979;51.014;6.678;2023-09-12T04:27:41;32.15;;;20.58;;
9880;SDS011;4979;51.014;6.678;2023-09-12T04:30:07;25.92;;;19.77;;
9880;SDS011;4979;51.014;6.678;2023-09-12T04:32:33;25.88;;;19.77;;
9880;SDS011;4979;51.014;6.678;2023-09-12T04:34:59;26.92;;;19.92;;
9880;SDS011;4979;51.014;6.678;2023-09-12T04:37:25;27.60;;;21.08;;
9880;SDS011;4979;51.014;6.678;2023-09-12T04:39:50;29.70;;;21.20;;
9880;SDS011;4979;51.014;6.678;2023-09-12T04:42:16;32.58;;;21.30;;
9880;SDS011;4979;51.014;6.678;2023-09-12T04:44:42;32.90;;;21.73;;
9880;SDS011;4979;51.014;6.678;2023-09-12T04:47:08;26.42;;;19.60;;
9880;SDS011;4979;51.014;6.678;2023-09-12T04:49:34;37.20;;;22.33;;
9880;SDS011;4979;51.014;6.678;2023-09-12T04:52:00;30.67;;;22.00;;
9880;SDS011;4979;51.014;6.678;2023-09-12T04:54:25;27.58;;;21.73;;
9880;SDS011;4979;51.014;6.678;2023-09-12T04:56:51;32.78;;;22.27;;
9880;SDS011;4979;51.014;6.678;2023-09-12T04:59:17;28.90;;;21.50;;
9880;SDS011;4979;51.014;6.678;2023-09-12T05:01:42;32.17;;;22.42;;
9880;SDS011;4979;51.014;6.678;2023-09-12T05:04:08;30.90;;;21.35;;
9880;SDS011;4979;51.014;6.678;2023-09-12T05:06:34;30.73;;;22.05;;
9880;SDS011;4979;51.014;6.678;2023-09-12T05:09:00;35.35;;;24.00;;
9880;SDS011;4979;51.014;6.678;2023-09-12T05:11:26;32.35;;;22.80;;
9880;SDS011;4979;51.014;6.678;2023-09-12T05:13:51;29.23;;;23.88;;
9880;SDS011;4979;51.014;6.678;2023-09-12T05:16:17;36.78;;;23.75;;
9880;SDS011;4979;51.014;6.678;2023-09-12T05:18:43;33.83;;;22.52;;
9880;SDS011;4979;51.014;6.678;2023-09-12T05:21:08;29.90;;;23.13;;
9880;SDS011;4979;51.014;6.678;2023-09-12T05:23:34;33.67;;;23.13;;
9880;SDS011;4979;51.014;6.678;2023-09-12T05:26:00;36.08;;;24.52;;
9880;SDS011;4979;51.014;6.678;2023-09-12T05:28:25;40.50;;;24.88;;
9880;SDS011;4979;51.014;6.678;2023-09-12T05:30:52;30.50;;;23.42;;
9880;SDS011;4979;51.014;6.678;2023-09-12T05:33:18;36.05;;;25.02;;
9880;SDS011;4979;51.014;6.678;2023-09-12T05:35:44;32.50;;;23.48;;
9880;SDS011;4979;51.014;6.678;2023-09-12T05:38:09;30.75;;;23.48;;
9880;SDS011;4979;51.014;6.678;2023-09-12T05:40:35;34.30;;;23.40;;
9880;SDS011;4979;51.014;6.678;2023-09-12T05:43:01;36.17;;;25.77;;
9880;SDS011;4979;51.014;6.678;2023-09-12T05:45:27;36.28;;;24.38;;
9880;SDS011;4979;51.014;6.678;2023-09-12T05:47:55;34.08;;;27.17;;
9880;SDS011;4979;51.014;6.678;2023-09-12T05:50:21;36.67;;;27.10;;
9880;SDS011;4979;51.014;6.678;2023-09-12T05:52:48;36.25;;;26.23;;
9880;SDS011;4979;51.014;6.678;2023-09-12T05:55:13;37.95;;;27.88;;
9880;SDS011;4979;51.014;6.678;2023-09-12T05:57:39;37.08;;;25.45;;
9880;SDS011;4979;51.014;6.678;2023-09-12T06:00:04;34.90;;;26.10;;
9880;SDS011;4979;51.014;6.678;2023-09-12T06:02:30;36.78;;;26.55;;
9880;SDS011;4979;51.014;6.678;2023-09-12T06:04:58;28.10;;;22.23;;
9880;SDS011;4979;51.014;6.678;2023-09-12T06:07:24;30.88;;;22.58;;
9880;SDS011;4979;51.014;6.678;2023-09-12T06:09:50;25.77;;;20.83;;
9880;SDS011;4979;51.014;6.678;2023-09-12T06:12:15;30.45;;;20.48;;
9880;SDS011;4979;51.014;6.678;2023-09-12T06:14:41;25.92;;;21.85;;
9880;SDS011;4979;51.014;6.678;2023-09-12T06:17:06;26.42;;;21.45;;
9880;SDS011;4979;51.014;6.678;2023-09-12T06:19:32;25.67;;;20.63;;
9880;SDS011;4979;51.014;6.678;2023-09-12T06:21:57;23.23;;;17.90;;
9880;SDS011;4979;51.014;6.678;2023-09-12T06:24:23;22.05;;;15.65;;
9880;SDS011;4979;51.014;6.678;2023-09-12T06:26:49;24.40;;;16.85;;
9880;SDS011;4979;51.014;6.678;2023-09-12T06:29:15;19.17;;;15.73;;
9880;SDS011;4979;51.014;6.678;2023-09-12T06:31:40;19.75;;;15.38;;
9880;SDS011;4979;51.014;6.678;2023-09-12T06:34:06;17.65;;;14.88;;
9880;SDS011;4979;51.014;6.678;2023-09-12T06:36:32;16.17;;;14.48;;
9880;SDS011;4979;51.014;6.678;2023-09-12T06:38:58;17.92;;;14.40;;
9880;SDS011;4979;51.014;6.678;2023-09-12T06:41:25;17.73;;;14.98;;
9880;SDS011;4979;51.014;6.678;2023-09-12T06:43:51;16.80;;;14.68;;
9880;SDS011;4979;51.014;6.678;2023-09-12T06:46:16;14.77;;;12.82;;
9880;SDS011;4979;51.014;6.678;2023-09-12T06:48:43;14.25;;;12.80;;
9880;SDS011;4979;51.014;6.678;2023-09-12T06:51:09;15.07;;;11.88;;
9880;SDS011;4979;51.014;6.678;2023-09-12T06:53:35;15.32;;;11.63;;
9880;SDS011;4979;51.014;6.678;2023-09-12T06:56:04;13.73;;;11.25;;
9880;SDS011;4979;51.014;6.678;2023-09-12T06:58:30;15.30;;;10.98;;
9880;SDS011;4979;51.014;6.678;2023-09-12T07:01:01;12.43;;;11.23;;
9880;SDS011;4979;51.014;6.678;2023-09-12T07:03:33;11.18;;;10.05;;
9880;SDS011;4979;51.014;6.678;2023-09-12T07:05:59;11.35;;;10.35;;
9880;SDS011;4979;51.014;6.678;2023-09-12T07:08:25;9.95;;;8.82;;
9880;SDS011;4979;51.014;6.678;2023-09-12T07:10:51;9.93;;;8.93;;
9880;SDS011;4979;51.014;6.678;2023-09-12T07:13:20;10.15;;;9.10;;
9880;SDS011;4979;51.014;6.678;2023-09-12T07:15:46;10.18;;;8.73;;
9880;SDS011;4979;51.014;6.678;2023-09-12T07:18:12;8.82;;;6.60;;
9880;SDS011;4979;51.014;6.678;2023-09-12T07:20:39;7.20;;;6.50;;
9880;SDS011;4979;51.014;6.678;2023-09-12T07:23:05;7.88;;;7.13;;
9880;SDS011;4979;51.014;6.678;2023-09-12T07:25:35;6.65;;;6.05;;
9880;SDS011;4979;51.014;6.678;2023-09-12T07:28:05;6.90;;;6.30;;
9880;SDS011;4979;51.014;6.678;2023-09-12T07:30:31;7.85;;;6.18;;
9880;SDS011;4979;51.014;6.678;2023-09-12T07:32:57;6.40;;;5.78;;
9880;SDS011;4979;51.014;6.678;2023-09-12T07:35:22;7.97;;;5.63;;
9880;SDS011;4979;51.014;6.678;2023-09-12T07:37:49;11.32;;;5.32;;
9880;SDS011;4979;51.014;6.678;2023-09-12T07:40:15;5.47;;;4.97;;
9880;SDS011;4979;51.014;6.678;2023-09-12T07:42:40;6.90;;;5.60;;
9880;SDS011;4979;51.014;6.678;2023-09-12T07:45:06;7.13;;;5.47;;
9880;SDS011;4979;51.014;6.678;2023-09-12T07:47:32;5.35;;;4.43;;
9880;SDS011;4979;51.014;6.678;2023-09-12T07:49:58;6.85;;;4.47;;
9880;SDS011;4979;51.014;6.678;2023-09-12T07:52:25;4.75;;;3.35;;
9880;SDS011;4979;51.014;6.678;2023-09-12T07:54:51;4.57;;;4.00;;
9880;SDS011;4979;51.014;6.678;2023-09-12T07:57:22;10.25;;;3.67;;
9880;SDS011;4979;51.014;6.678;2023-09-12T07:59:48;7.53;;;4.25;;
9880;SDS011;4979;51.014;6.678;2023-09-12T08:02:13;4.97;;;4.40;;
9880;SDS011;4979;51.014;6.678;2023-09-12T08:04:39;5.72;;;3.95;;
9880;SDS011;4979;51.014;6.678;2023-09-12T08:07:04;5.20;;;4.43;;
9880;SDS011;4979;51.014;6.678;2023-09-12T08:09:49;5.05;;;4.05;;
9880;SDS011;4979;51.014;6.678;2023-09-12T08:12:17;5.70;;;3.42;;
9880;SDS011;4979;51.014;6.678;2023-09-12T08:14:44;3.55;;;3.25;;
9880;SDS011;4979;51.014;6.678;2023-09-12T08:17:10;3.85;;;3.50;;
9880;SDS011;4979;51.014;6.678;2023-09-12T08:19:37;4.85;;;4.35;;
9880;SDS011;4979;51.014;6.678;2023-09-12T08:22:03;5.38;;;4.15;;
9880;SDS011;4979;51.014;6.678;2023-09-12T08:24:29;5.43;;;4.53;;
9880;SDS011;4979;51.014;6.678;2023-09-12T08:26:54;5.57;;;4.10;;
9880;SDS011;4979;51.014;6.678;2023-09-12T08:29:20;5.60;;;4.40;;
9880;SDS011;4979;51.014;6.678;2023-09-12T08:31:45;5.40;;;4.88;;
9880;SDS011;4979;51.014;6.678;2023-09-12T08:34:12;6.40;;;4.90;;
9880;SDS011;4979;51.014;6.678;2023-09-12T08:36:38;8.55;;;5.50;;
9880;SDS011;4979;51.014;6.678;2023-09-12T08:39:04;6.07;;;4.60;;
9880;SDS011;4979;51.014;6.678;2023-09-12T08:41:32;5.95;;;4.88;;
9880;SDS011;4979;51.014;6.678;2023-09-12T08:43:58;6.80;;;5.00;;
9880;SDS011;4979;51.014;6.678;2023-09-12T08:46:25;4.65;;;4.13;;
9880;SDS011;4979;51.014;6.678;2023-09-12T08:48:51;4.40;;;4.00;;
9880;SDS011;4979;51.014;6.678;2023-09-12T08:51:20;5.30;;;3.70;;
9880;SDS011;4979;51.014;6.678;2023-09-12T08:53:46;5.47;;;4.50;;
9880;SDS011;4979;51.014;6.678;2023-09-12T08:56:12;6.10;;;4.63;;
9880;SDS011;4979;51.014;6.678;2023-09-12T08:58:38;8.02;;;5.60;;
9880;SDS011;4979;51.014;6.678;2023-09-12T09:01:05;6.72;;;5.70;;
9880;SDS011;4979;51.014;6.678;2023-09-12T09:03:31;9.20;;;6.22;;
9880;SDS011;4979;51.014;6.678;2023-09-12T09:05:57;10.30;;;7.38;;
9880;SDS011;4979;51.014;6.678;2023-09-12T09:08:23;7.63;;;6.82;;
9880;SDS011;4979;51.014;6.678;2023-09-12T09:10:56;6.75;;;5.50;;
9880;SDS011;4979;51.014;6.678;2023-09-12T09:13:28;8.25;;;6.70;;
9880;SDS011;4979;51.014;6.678;2023-09-12T09:16:13;7.45;;;6.72;;
9880;SDS011;4979;51.014;6.678;2023-09-12T09:21:19;12.48;;;6.50;;
9880;SDS011;4979;51.014;6.678;2023-09-12T09:23:51;6.65;;;6.00;;
9880;SDS011;4979;51.014;6.678;2023-09-12T09:26:17;7.25;;;6.50;;
9880;SDS011;4979;51.014;6.678;2023-09-12T09:28:43;5.57;;;4.72;;
9880;SDS011;4979;51.014;6.678;2023-09-12T09:31:12;5.60;;;4.97;;
9880;SDS011;4979;51.014;6.678;2023-09-12T09:33:39;6.30;;;5.70;;
9880;SDS011;4979;51.014;6.678;2023-09-12T09:36:06;6.90;;;5.78;;
9880;SDS011;4979;51.014;6.678;2023-09-12T09:38:35;8.63;;;5.30;;
9880;SDS011;4979;51.014;6.678;2023-09-12T09:41:04;7.38;;;5.72;;
9880;SDS011;4979;51.014;6.678;2023-09-12T09:43:31;6.93;;;6.20;;
9880;SDS011;4979;51.014;6.678;2023-09-12T09:45:57;8.77;;;5.95;;
9880;SDS011;4979;51.014;6.678;2023-09-12T09:48:24;8.80;;;5.75;;
9880;SDS011;4979;51.014;6.678;2023-09-12T09:50:53;12.50;;;6.18;;
9880;SDS011;4979;51.014;6.678;2023-09-12T09:53:26;8.15;;;6.55;;
9880;SDS011;4979;51.014;6.678;2023-09-12T09:55:51;7.95;;;6.45;;
9880;SDS011;4979;51.014;6.678;2023-09-12T09:58:17;8.70;;;6.20;;
9880;SDS011;4979;51.014;6.678;2023-09-12T10:00:43;7.55;;;5.18;;
9880;SDS011;4979;51.014;6.678;2023-09-12T10:03:08;6.07;;;4.57;;
9880;SDS011;4979;51.014;6.678;2023-09-12T10:05:37;18.67;;;7.47;;
9880;SDS011;4979;51.014;6.678;2023-09-12T10:08:06;6.93;;;5.03;;
9880;SDS011;4979;51.014;6.678;2023-09-12T10:10:34;6.60;;;4.47;;
9880;SDS011;4979;51.014;6.678;2023-09-12T10:13:03;8.25;;;4.53;;
9880;SDS011;4979;51.014;6.678;2023-09-12T10:15:29;7.65;;;5.10;;
9880;SDS011;4979;51.014;6.678;2023-09-12T10:17:59;7.05;;;4.30;;
9880;SDS011;4979;51.014;6.678;2023-09-12T10:20:32;7.45;;;5.55;;
9880;SDS011;4979;51.014;6.678;2023-09-12T10:23:05;7.97;;;6.13;;
9880;SDS011;4979;51.014;6.678;2023-09-12T10:25:40;7.60;;;6.68;;
9880;SDS011;4979;51.014;6.678;2023-09-12T10:28:08;9.50;;;6.72;;
9880;SDS011;4979;51.014;6.678;2023-09-12T10:30:35;10.13;;;7.82;;
9880;SDS011;4979;51.014;6.678;2023-09-12T10:33:02;10.00;;;7.35;;
9880;SDS011;4979;51.014;6.678;2023-09-12T10:35:29;10.90;;;7.95;;
9880;SDS011;4979;51.014;6.678;2023-09-12T10:37:56;6.53;;;5.82;;
9880;SDS011;4979;51.014;6.678;2023-09-12T10:40:28;7.97;;;7.07;;
9880;SDS011;4979;51.014;6.678;2023-09-12T10:42:56;8.80;;;7.25;;
9880;SDS011;4979;51.014;6.678;2023-09-12T10:45:22;9.05;;;7.38;;
9880;SDS011;4979;51.014;6.678;2023-09-12T10:47:48;6.50;;;5.80;;
9880;SDS011;4979;51.014;6.678;2023-09-12T10:50:14;10.95;;;8.73;;
9880;SDS011;4979;51.014;6.678;2023-09-12T10:52:40;17.15;;;8.70;;
9880;SDS011;4979;51.014;6.678;2023-09-12T10:55:06;11.63;;;7.25;;
9880;SDS011;4979;51.014;6.678;2023-09-12T10:57:33;9.90;;;8.65;;
9880;SDS011;4979;51.014;6.678;2023-09-12T11:02:32;16.52;;;9.93;;
9880;SDS011;4979;51.014;6.678;2023-09-12T11:05:05;13.57;;;10.35;;
9880;SDS011;4979;51.014;6.678;2023-09-12T11:07:33;10.45;;;9.35;;
9880;SDS011;4979;51.014;6.678;2023-09-12T11:12:39;12.20;;;9.88;;
9880;SDS011;4979;51.014;6.678;2023-09-12T11:15:06;13.85;;;10.55;;
9880;SDS011;4979;51.014;6.678;2023-09-12T11:20:06;12.90;;;8.70;;
9880;SDS011;4979;51.014;6.678;2023-09-12T11:30:16;10.95;;;7.72;;
9880;SDS011;4979;51.014;6.678;2023-09-12T11:32:47;8.52;;;7.68;;
9880;SDS011;4979;51.014;6.678;2023-09-12T11:35:15;8.82;;;7.72;;
9880;SDS011;4979;51.014;6.678;2023-09-12T11:37:53;9.05;;;7.80;;
9880;SDS011;4979;51.014;6.678;2023-09-12T11:40:24;10.77;;;7.95;;
9880;SDS011;4979;51.014;6.678;2023-09-12T11:42:51;8.98;;;7.85;;
9880;SDS011;4979;51.014;6.678;2023-09-12T11:45:18;9.98;;;8.38;;
9880;SDS011;4979;51.014;6.678;2023-09-12T11:47:45;10.35;;;8.10;;
9880;SDS011;4979;51.014;6.678;2023-09-12T11:53:08;10.45;;;9.32;;
9880;SDS011;4979;51.014;6.678;2023-09-12T11:55:36;9.30;;;8.25;;
9880;SDS011;4979;51.014;6.678;2023-09-12T11:58:02;9.32;;;8.35;;
9880;SDS011;4979;51.014;6.678;2023-09-12T12:00:28;11.30;;;8.85;;
9880;SDS011;4979;51.014;6.678;2023-09-12T12:02:55;11.13;;;8.00;;
9880;SDS011;4979;51.014;6.678;2023-09-12T12:05:21;9.65;;;8.60;;
9880;SDS011;4979;51.014;6.678;2023-09-12T12:07:47;10.25;;;7.47;;
9880;SDS011;4979;51.014;6.678;2023-09-12T12:10:14;10.00;;;7.43;;
9880;SDS011;4979;51.014;6.678;2023-09-12T12:12:41;10.80;;;7.40;;
9880;SDS011;4979;51.014;6.678;2023-09-12T12:15:11;10.27;;;7.60;;
9880;SDS011;4979;51.014;6.678;2023-09-12T12:17:37;7.72;;;6.43;;
9880;SDS011;4979;51.014;6.678;2023-09-12T12:20:06;9.30;;;6.82;;
9880;SDS011;4979;51.014;6.678;2023-09-12T12:22:35;9.70;;;8.05;;
9880;SDS011;4979;51.014;6.678;2023-09-12T12:25:05;7.30;;;6.63;;
9880;SDS011;4979;51.014;6.678;2023-09-12T12:27:38;6.95;;;6.25;;
9880;SDS011;4979;51.014;6.678;2023-09-12T12:30:05;6.95;;;6.25;;
9880;SDS011;4979;51.014;6.678;2023-09-12T12:32:42;8.60;;;7.30;;
9880;SDS011;4979;51.014;6.678;2023-09-12T12:35:16;9.10;;;7.50;;
9880;SDS011;4979;51.014;6.678;2023-09-12T12:37:47;11.57;;;10.10;;
9880;SDS011;4979;51.014;6.678;2023-09-12T12:40:14;11.00;;;9.90;;
9880;SDS011;4979;51.014;6.678;2023-09-12T12:42:41;13.55;;;9.35;;
9880;SDS011;4979;51.014;6.678;2023-09-12T12:45:10;14.13;;;9.65;;
9880;SDS011;4979;51.014;6.678;2023-09-12T12:47:40;10.38;;;9.23;;
9880;SDS011;4979;51.014;6.678;2023-09-12T12:50:13;8.00;;;6.93;;
9880;SDS011;4979;51.014;6.678;2023-09-12T12:52:39;7.28;;;6.57;;
9880;SDS011;4979;51.014;6.678;2023-09-12T12:55:06;7.50;;;6.80;;
9880;SDS011;4979;51.014;6.678;2023-09-12T12:57:40;6.47;;;5.85;;
9880;SDS011;4979;51.014;6.678;2023-09-12T13:00:13;8.32;;;6.65;;
9880;SDS011;4979;51.014;6.678;2023-09-12T13:02:40;7.50;;;6.70;;
9880;SDS011;4979;51.014;6.678;2023-09-12T13:05:26;6.95;;;5.20;;
9880;SDS011;4979;51.014;6.678;2023-09-12T13:07:58;8.60;;;5.45;;
9880;SDS011;4979;51.014;6.678;2023-09-12T13:10:23;6.60;;;5.20;;
9880;SDS011;4979;51.014;6.678;2023-09-12T13:12:49;5.57;;;5.00;;
9880;SDS011;4979;51.014;6.678;2023-09-12T13:15:16;7.60;;;6.90;;
9880;SDS011;4979;51.014;6.678;2023-09-12T13:17:42;6.93;;;5.82;;
9880;SDS011;4979;51.014;6.678;2023-09-12T13:20:09;7.22;;;6.20;;
9880;SDS011;4979;51.014;6.678;2023-09-12T13:22:35;7.10;;;6.18;;
9880;SDS011;4979;51.014;6.678;2023-09-12T13:25:01;6.57;;;5.90;;
9880;SDS011;4979;51.014;6.678;2023-09-12T13:27:27;7.15;;;6.28;;
9880;SDS011;4979;51.014;6.678;2023-09-12T13:29:53;6.57;;;5.97;;
9880;SDS011;4979;51.014;6.678;2023-09-12T13:32:19;7.40;;;6.45;;
9880;SDS011;4979;51.014;6.678;2023-09-12T13:34:44;6.28;;;5.30;;
9880;SDS011;4979;51.014;6.678;2023-09-12T13:37:10;8.80;;;7.13;;
9880;SDS011;4979;51.014;6.678;2023-09-12T13:39:36;7.63;;;5.65;;
9880;SDS011;4979;51.014;6.678;2023-09-12T13:42:01;9.75;;;6.95;;
9880;SDS011;4979;51.014;6.678;2023-09-12T13:44:30;8.18;;;6.47;;
9880;SDS011;4979;51.014;6.678;2023-09-12T13:46:56;9.60;;;7.20;;
9880;SDS011;4979;51.014;6.678;2023-09-12T13:49:22;7.97;;;6.95;;
9880;SDS011;4979;51.014;6.678;2023-09-12T13:51:47;10.25;;;8.05;;
9880;SDS011;4979;51.014;6.678;2023-09-12T13:54:13;10.15;;;8.95;;
9880;SDS011;4979;51.014;6.678;2023-09-12T13:56:41;10.13;;;8.88;;
9880;SDS011;4979;51.014;6.678;2023-09-12T13:59:07;10.60;;;9.02;;
9880;SDS011;4979;51.014;6.678;2023-09-12T14:01:33;10.65;;;9.55;;
9880;SDS011;4979;51.014;6.678;2023-09-12T14:03:58;13.40;;;8.75;;
9880;SDS011;4979;51.014;6.678;2023-09-12T14:06:24;10.73;;;8.23;;
9880;SDS011;4979;51.014;6.678;2023-09-12T14:08:50;10.98;;;7.88;;
9880;SDS011;4979;51.014;6.678;2023-09-12T14:11:17;8.77;;;7.88;;
9880;SDS011;4979;51.014;6.678;2023-09-12T14:13:42;9.77;;;8.52;;
9880;SDS011;4979;51.014;6.678;2023-09-12T14:16:08;9.55;;;7.68;;
9880;SDS011;4979;51.014;6.678;2023-09-12T14:18:34;11.93;;;7.82;;
9880;SDS011;4979;51.014;6.678;2023-09-12T14:21:00;7.13;;;5.70;;
9880;SDS011;4979;51.014;6.678;2023-09-12T14:23:26;8.05;;;5.65;;
9880;SDS011;4979;51.014;6.678;2023-09-12T14:25:51;7.43;;;6.35;;
9880;SDS011;4979;51.014;6.678;2023-09-12T14:28:17;8.93;;;6.50;;
9880;SDS011;4979;51.014;6.678;2023-09-12T14:30:43;7.40;;;6.25;;
9880;SDS011;4979;51.014;6.678;2023-09-12T14:33:13;8.48;;;7.57;;
9880;SDS011;4979;51.014;6.678;2023-09-12T14:35:39;7.70;;;6.88;;
9880;SDS011;4979;51.014;6.678;2023-09-12T14:38:05;11.45;;;8.57;;
9880;SDS011;4979;51.014;6.678;2023-09-12T14:40:31;8.60;;;7.80;;
9880;SDS011;4979;51.014;6.678;2023-09-12T14:42:56;12.10;;;8.35;;
9880;SDS011;4979;51.014;6.678;2023-09-12T14:45:22;11.10;;;7.97;;
9880;SDS011;4979;51.014;6.678;2023-09-12T14:47:50;11.88;;;8.25;;
9880;SDS011;4979;51.014;6.678;2023-09-12T14:50:16;10.95;;;8.02;;
9880;SDS011;4979;51.014;6.678;2023-09-12T14:52:41;10.98;;;9.07;;
9880;SDS011;4979;51.014;6.678;2023-09-12T14:55:08;10.85;;;8.60;;
9880;SDS011;4979;51.014;6.678;2023-09-12T14:57:34;7.80;;;6.95;;
9880;SDS011;4979;51.014;6.678;2023-09-12T15:00:00;7.80;;;6.93;;
9880;SDS011;4979;51.014;6.678;2023-09-12T15:02:26;6.97;;;5.80;;
9880;SDS011;4979;51.014;6.678;2023-09-12T15:04:56;7.88;;;6.10;;
9880;SDS011;4979;51.014;6.678;2023-09-12T15:07:22;6.75;;;6.05;;
9880;SDS011;4979;51.014;6.678;2023-09-12T15:09:48;10.18;;;6.50;;
9880;SDS011;4979;51.014;6.678;2023-09-12T15:12:13;9.40;;;7.07;;
9880;SDS011;4979;51.014;6.678;2023-09-12T15:14:39;8.90;;;7.22;;
9880;SDS011;4979;51.014;6.678;2023-09-12T15:17:05;6.80;;;6.03;;
9880;SDS011;4979;51.014;6.678;2023-09-12T15:19:30;9.23;;;6.22;;
9880;SDS011;4979;51.014;6.678;2023-09-12T15:21:56;9.25;;;6.20;;
9880;SDS011;4979;51.014;6.678;2023-09-12T15:24:21;9.23;;;6.57;;
9880;SDS011;4979;51.014;6.678;2023-09-12T15:26:47;6.10;;;5.50;;